Airport details for: LGAL (Greece)

Metar

LGAL 250920Z 15004KT CAVOK 18/07 Q1020

General details

ICAO: LGAL
IATA: AXD
Name (city): Dimokritos
Major:
Country: Greece
vACC: Hellenic vACC
Description:

Alexandroupolis International Airport "Democritus" (IATA: AXD, ICAO: LGAL) is an airport serving Alexandroupoli, Greece. It is located near the village of Apalos, which belongs to the municipality of Alexandroupoli. The airport can accessed via the E90 National Road connecting Greece with Turkey. In the future it will be connected with the Egnatia Odos. The airport was found in 1944. In 1955 it became an international airport whereas in 1975 the current buildings and runway were constructed. The airport was named after Democritus, the ancient pholosopher born in Abdera. It is a middle scale airport in terms of the conducted flights and transport of passengers. Following the dymanic development of the region, it is expected that the airport will be rapidly developed.

Scenery links:
FS9 scenery:
FSX/P3D scenery:
XP scenery:
Elevation: 24 ft.
Transition altitude: 4000 ft.
MSA: 8400 ft.
Latitude: 40.855834
Longitude: 25.956111
LGAL Charts
LGAL Notams
LGAL Online stations

Runways

Number Course Length Elevation Lat Lon ILS ILS freq ILS FAC GP
07 70° 8471ft / 2582 m 10ft 40.852345 25.941475 - - 3.0°
25 250° 8471ft / 2582 m 24ft 40.859175 25.970745 - - 3.0°